sensor_id;sensor_type;location;lat;lon;timestamp;P1;durP1;ratioP1;P2;durP2;ratioP2
44810;SDS011;30526;52.184;4.476;2022-10-17T00:01:21;14.95;;;6.03;;
44810;SDS011;30526;52.184;4.476;2022-10-17T00:03:47;9.52;;;5.63;;
44810;SDS011;30526;52.184;4.476;2022-10-17T00:06:13;11.25;;;6.28;;
44810;SDS011;30526;52.184;4.476;2022-10-17T00:08:40;11.48;;;6.03;;
44810;SDS011;30526;52.184;4.476;2022-10-17T00:11:07;8.65;;;4.28;;
44810;SDS011;30526;52.184;4.476;2022-10-17T00:13:34;11.95;;;6.22;;
44810;SDS011;30526;52.184;4.476;2022-10-17T00:16:00;11.40;;;6.47;;
44810;SDS011;30526;52.184;4.476;2022-10-17T00:18:26;17.73;;;7.07;;
44810;SDS011;30526;52.184;4.476;2022-10-17T00:20:52;12.95;;;6.07;;
44810;SDS011;30526;52.184;4.476;2022-10-17T00:23:18;10.90;;;6.63;;
44810;SDS011;30526;52.184;4.476;2022-10-17T00:25:44;12.43;;;6.18;;
44810;SDS011;30526;52.184;4.476;2022-10-17T00:28:10;12.80;;;6.53;;
44810;SDS011;30526;52.184;4.476;2022-10-17T00:30:37;11.25;;;6.60;;
44810;SDS011;30526;52.184;4.476;2022-10-17T00:33:03;11.30;;;6.70;;
44810;SDS011;30526;52.184;4.476;2022-10-17T00:35:29;12.77;;;6.97;;
44810;SDS011;30526;52.184;4.476;2022-10-17T00:37:55;13.73;;;6.75;;
44810;SDS011;30526;52.184;4.476;2022-10-17T00:40:21;13.50;;;7.00;;
44810;SDS011;30526;52.184;4.476;2022-10-17T00:42:47;15.90;;;7.70;;
44810;SDS011;30526;52.184;4.476;2022-10-17T00:47:41;15.25;;;7.82;;
44810;SDS011;30526;52.184;4.476;2022-10-17T00:50:07;13.20;;;8.13;;
44810;SDS011;30526;52.184;4.476;2022-10-17T00:52:34;16.83;;;8.03;;
44810;SDS011;30526;52.184;4.476;2022-10-17T00:55:09;9.80;;;7.93;;
44810;SDS011;30526;52.184;4.476;2022-10-17T00:57:36;15.43;;;7.82;;
44810;SDS011;30526;52.184;4.476;2022-10-17T01:00:05;17.08;;;8.75;;
44810;SDS011;30526;52.184;4.476;2022-10-17T01:02:32;14.30;;;8.68;;
44810;SDS011;30526;52.184;4.476;2022-10-17T01:04:58;11.23;;;8.13;;
44810;SDS011;30526;52.184;4.476;2022-10-17T01:07:24;10.05;;;7.75;;
44810;SDS011;30526;52.184;4.476;2022-10-17T01:22:26;15.57;;;8.75;;
44810;SDS011;30526;52.184;4.476;2022-10-17T01:27:28;15.93;;;8.75;;
44810;SDS011;30526;52.184;4.476;2022-10-17T01:32:35;10.95;;;8.38;;
44810;SDS011;30526;52.184;4.476;2022-10-17T01:35:09;16.50;;;8.73;;
44810;SDS011;30526;52.184;4.476;2022-10-17T01:37:47;16.60;;;8.70;;
44810;SDS011;30526;52.184;4.476;2022-10-17T01:40:19;18.13;;;8.82;;
44810;SDS011;30526;52.184;4.476;2022-10-17T01:46:02;14.05;;;9.20;;
44810;SDS011;30526;52.184;4.476;2022-10-17T01:48:23;14.13;;;8.63;;
44810;SDS011;30526;52.184;4.476;2022-10-17T01:50:51;12.80;;;8.88;;
44810;SDS011;30526;52.184;4.476;2022-10-17T01:53:23;11.15;;;8.70;;
44810;SDS011;30526;52.184;4.476;2022-10-17T01:55:52;15.27;;;9.65;;
44810;SDS011;30526;52.184;4.476;2022-10-17T01:58:25;15.48;;;9.48;;
44810;SDS011;30526;52.184;4.476;2022-10-17T02:00:54;16.67;;;10.82;;
44810;SDS011;30526;52.184;4.476;2022-10-17T02:03:21;12.05;;;6.57;;
44810;SDS011;30526;52.184;4.476;2022-10-17T02:05:47;20.57;;;10.50;;
44810;SDS011;30526;52.184;4.476;2022-10-17T02:08:14;17.35;;;9.25;;
44810;SDS011;30526;52.184;4.476;2022-10-17T02:10:59;13.85;;;9.88;;
44810;SDS011;30526;52.184;4.476;2022-10-17T02:16:13;14.68;;;9.82;;
44810;SDS011;30526;52.184;4.476;2022-10-17T02:21:27;18.83;;;10.07;;
44810;SDS011;30526;52.184;4.476;2022-10-17T02:24:03;17.85;;;10.20;;
44810;SDS011;30526;52.184;4.476;2022-10-17T02:26:33;18.95;;;10.20;;
44810;SDS011;30526;52.184;4.476;2022-10-17T02:29:02;16.20;;;9.73;;
44810;SDS011;30526;52.184;4.476;2022-10-17T02:31:32;18.50;;;10.90;;
44810;SDS011;30526;52.184;4.476;2022-10-17T02:34:01;14.68;;;9.85;;
44810;SDS011;30526;52.184;4.476;2022-10-17T02:36:29;14.55;;;9.95;;
44810;SDS011;30526;52.184;4.476;2022-10-17T02:38:57;18.85;;;10.75;;
44810;SDS011;30526;52.184;4.476;2022-10-17T02:41:23;12.10;;;7.35;;
44810;SDS011;30526;52.184;4.476;2022-10-17T02:43:49;10.80;;;7.47;;
44810;SDS011;30526;52.184;4.476;2022-10-17T02:46:18;18.17;;;9.57;;
44810;SDS011;30526;52.184;4.476;2022-10-17T02:56:12;13.15;;;9.13;;
44810;SDS011;30526;52.184;4.476;2022-10-17T02:58:40;19.85;;;10.30;;
44810;SDS011;30526;52.184;4.476;2022-10-17T03:01:07;18.40;;;10.60;;
44810;SDS011;30526;52.184;4.476;2022-10-17T03:03:33;17.88;;;11.05;;
44810;SDS011;30526;52.184;4.476;2022-10-17T03:05:59;17.13;;;10.57;;
44810;SDS011;30526;52.184;4.476;2022-10-17T03:08:25;17.35;;;10.90;;
44810;SDS011;30526;52.184;4.476;2022-10-17T03:10:51;20.48;;;9.82;;
44810;SDS011;30526;52.184;4.476;2022-10-17T03:13:17;16.50;;;10.02;;
44810;SDS011;30526;52.184;4.476;2022-10-17T03:15:43;17.42;;;10.55;;
44810;SDS011;30526;52.184;4.476;2022-10-17T03:18:09;15.57;;;10.10;;
44810;SDS011;30526;52.184;4.476;2022-10-17T03:20:35;14.88;;;9.40;;
44810;SDS011;30526;52.184;4.476;2022-10-17T03:23:01;22.23;;;9.52;;
44810;SDS011;30526;52.184;4.476;2022-10-17T03:25:27;12.05;;;9.38;;
44810;SDS011;30526;52.184;4.476;2022-10-17T03:27:53;12.35;;;9.40;;
44810;SDS011;30526;52.184;4.476;2022-10-17T03:30:19;13.05;;;9.13;;
44810;SDS011;30526;52.184;4.476;2022-10-17T03:32:45;13.35;;;8.93;;
44810;SDS011;30526;52.184;4.476;2022-10-17T03:35:11;14.00;;;8.77;;
44810;SDS011;30526;52.184;4.476;2022-10-17T03:37:37;15.48;;;9.60;;
44810;SDS011;30526;52.184;4.476;2022-10-17T03:40:03;16.67;;;9.73;;
44810;SDS011;30526;52.184;4.476;2022-10-17T03:42:30;12.25;;;8.80;;
44810;SDS011;30526;52.184;4.476;2022-10-17T03:44:56;15.45;;;8.98;;
44810;SDS011;30526;52.184;4.476;2022-10-17T03:47:22;14.73;;;8.63;;
44810;SDS011;30526;52.184;4.476;2022-10-17T03:49:48;15.07;;;8.77;;
44810;SDS011;30526;52.184;4.476;2022-10-17T03:52:14;12.23;;;8.43;;
44810;SDS011;30526;52.184;4.476;2022-10-17T03:54:40;15.25;;;9.13;;
44810;SDS011;30526;52.184;4.476;2022-10-17T03:57:06;12.20;;;8.50;;
44810;SDS011;30526;52.184;4.476;2022-10-17T03:59:32;15.82;;;8.70;;
44810;SDS011;30526;52.184;4.476;2022-10-17T04:01:58;14.18;;;8.68;;
44810;SDS011;30526;52.184;4.476;2022-10-17T04:04:24;17.92;;;8.77;;
44810;SDS011;30526;52.184;4.476;2022-10-17T04:06:50;14.65;;;8.88;;
44810;SDS011;30526;52.184;4.476;2022-10-17T04:09:16;12.25;;;9.18;;
44810;SDS011;30526;52.184;4.476;2022-10-17T04:11:41;11.77;;;8.60;;
44810;SDS011;30526;52.184;4.476;2022-10-17T04:14:08;17.27;;;8.15;;
44810;SDS011;30526;52.184;4.476;2022-10-17T04:16:34;10.82;;;8.48;;
44810;SDS011;30526;52.184;4.476;2022-10-17T04:19:00;12.00;;;8.25;;
44810;SDS011;30526;52.184;4.476;2022-10-17T04:21:27;11.40;;;7.82;;
44810;SDS011;30526;52.184;4.476;2022-10-17T04:23:53;13.57;;;8.40;;
44810;SDS011;30526;52.184;4.476;2022-10-17T04:26:20;11.27;;;8.45;;
44810;SDS011;30526;52.184;4.476;2022-10-17T04:28:46;17.13;;;9.07;;
44810;SDS011;30526;52.184;4.476;2022-10-17T04:31:12;17.08;;;8.05;;
44810;SDS011;30526;52.184;4.476;2022-10-17T04:33:38;15.68;;;8.80;;
44810;SDS011;30526;52.184;4.476;2022-10-17T04:36:06;12.77;;;8.57;;
44810;SDS011;30526;52.184;4.476;2022-10-17T04:38:32;12.50;;;7.90;;
44810;SDS011;30526;52.184;4.476;2022-10-17T04:40:59;13.70;;;8.38;;
44810;SDS011;30526;52.184;4.476;2022-10-17T04:43:28;21.55;;;8.35;;
44810;SDS011;30526;52.184;4.476;2022-10-17T04:45:56;13.82;;;7.45;;
44810;SDS011;30526;52.184;4.476;2022-10-17T04:48:22;13.95;;;7.50;;
44810;SDS011;30526;52.184;4.476;2022-10-17T04:50:54;9.77;;;7.47;;
44810;SDS011;30526;52.184;4.476;2022-10-17T04:53:21;15.85;;;7.47;;
44810;SDS011;30526;52.184;4.476;2022-10-17T04:55:47;8.98;;;6.07;;
44810;SDS011;30526;52.184;4.476;2022-10-17T04:58:13;12.63;;;8.02;;
44810;SDS011;30526;52.184;4.476;2022-10-17T05:00:39;16.50;;;7.75;;
44810;SDS011;30526;52.184;4.476;2022-10-17T05:03:05;12.07;;;7.35;;
44810;SDS011;30526;52.184;4.476;2022-10-17T05:05:31;14.75;;;7.50;;
44810;SDS011;30526;52.184;4.476;2022-10-17T05:07:57;10.05;;;7.30;;
44810;SDS011;30526;52.184;4.476;2022-10-17T05:10:23;10.60;;;8.00;;
44810;SDS011;30526;52.184;4.476;2022-10-17T05:12:49;17.27;;;7.82;;
44810;SDS011;30526;52.184;4.476;2022-10-17T05:15:16;12.63;;;7.67;;
44810;SDS011;30526;52.184;4.476;2022-10-17T05:17:42;13.32;;;7.78;;
44810;SDS011;30526;52.184;4.476;2022-10-17T05:20:08;10.52;;;7.80;;
44810;SDS011;30526;52.184;4.476;2022-10-17T05:22:34;15.17;;;7.77;;
44810;SDS011;30526;52.184;4.476;2022-10-17T05:25:00;11.82;;;7.75;;
44810;SDS011;30526;52.184;4.476;2022-10-17T05:27:26;12.50;;;7.63;;
44810;SDS011;30526;52.184;4.476;2022-10-17T05:29:52;11.48;;;7.32;;
44810;SDS011;30526;52.184;4.476;2022-10-17T05:32:18;12.32;;;7.63;;
44810;SDS011;30526;52.184;4.476;2022-10-17T05:34:44;11.18;;;6.95;;
44810;SDS011;30526;52.184;4.476;2022-10-17T05:37:10;10.60;;;7.53;;
44810;SDS011;30526;52.184;4.476;2022-10-17T05:39:36;11.85;;;6.82;;
44810;SDS011;30526;52.184;4.476;2022-10-17T05:42:02;11.30;;;7.80;;
44810;SDS011;30526;52.184;4.476;2022-10-17T05:44:28;11.52;;;7.25;;
44810;SDS011;30526;52.184;4.476;2022-10-17T05:46:54;14.57;;;6.90;;
44810;SDS011;30526;52.184;4.476;2022-10-17T05:49:20;11.32;;;6.95;;
44810;SDS011;30526;52.184;4.476;2022-10-17T05:51:46;11.73;;;7.00;;
44810;SDS011;30526;52.184;4.476;2022-10-17T05:54:12;10.32;;;6.93;;
44810;SDS011;30526;52.184;4.476;2022-10-17T05:56:38;13.35;;;8.10;;
44810;SDS011;30526;52.184;4.476;2022-10-17T05:59:04;11.80;;;7.53;;
44810;SDS011;30526;52.184;4.476;2022-10-17T06:01:30;11.48;;;7.47;;
44810;SDS011;30526;52.184;4.476;2022-10-17T06:03:56;11.75;;;7.00;;
44810;SDS011;30526;52.184;4.476;2022-10-17T06:06:22;11.27;;;6.78;;
44810;SDS011;30526;52.184;4.476;2022-10-17T06:08:48;14.52;;;7.20;;
44810;SDS011;30526;52.184;4.476;2022-10-17T06:11:14;13.43;;;7.30;;
44810;SDS011;30526;52.184;4.476;2022-10-17T06:13:40;14.95;;;7.63;;
44810;SDS011;30526;52.184;4.476;2022-10-17T06:16:06;13.75;;;6.57;;
44810;SDS011;30526;52.184;4.476;2022-10-17T06:18:32;11.00;;;7.57;;
44810;SDS011;30526;52.184;4.476;2022-10-17T06:21:05;12.65;;;7.57;;
44810;SDS011;30526;52.184;4.476;2022-10-17T06:23:32;14.57;;;7.85;;
44810;SDS011;30526;52.184;4.476;2022-10-17T06:25:58;15.23;;;7.60;;
44810;SDS011;30526;52.184;4.476;2022-10-17T06:28:24;13.95;;;7.93;;
44810;SDS011;30526;52.184;4.476;2022-10-17T06:30:50;12.30;;;6.95;;
44810;SDS011;30526;52.184;4.476;2022-10-17T06:33:16;12.25;;;7.10;;
44810;SDS011;30526;52.184;4.476;2022-10-17T06:35:42;9.63;;;7.10;;
44810;SDS011;30526;52.184;4.476;2022-10-17T06:38:08;15.75;;;7.35;;
44810;SDS011;30526;52.184;4.476;2022-10-17T06:40:34;15.60;;;7.78;;
44810;SDS011;30526;52.184;4.476;2022-10-17T06:43:00;12.68;;;7.20;;
44810;SDS011;30526;52.184;4.476;2022-10-17T06:45:26;12.70;;;7.35;;
44810;SDS011;30526;52.184;4.476;2022-10-17T06:47:52;14.38;;;7.93;;
44810;SDS011;30526;52.184;4.476;2022-10-17T06:50:19;13.32;;;8.02;;
44810;SDS011;30526;52.184;4.476;2022-10-17T06:52:45;12.65;;;7.07;;
44810;SDS011;30526;52.184;4.476;2022-10-17T06:55:11;12.93;;;7.22;;
44810;SDS011;30526;52.184;4.476;2022-10-17T06:57:37;15.15;;;7.30;;
44810;SDS011;30526;52.184;4.476;2022-10-17T07:00:03;11.57;;;7.35;;
44810;SDS011;30526;52.184;4.476;2022-10-17T07:02:30;7.03;;;5.20;;
44810;SDS011;30526;52.184;4.476;2022-10-17T07:04:56;11.68;;;6.97;;
44810;SDS011;30526;52.184;4.476;2022-10-17T07:07:22;13.35;;;7.28;;
44810;SDS011;30526;52.184;4.476;2022-10-17T07:09:48;12.57;;;7.47;;
44810;SDS011;30526;52.184;4.476;2022-10-17T07:12:14;11.82;;;7.45;;
44810;SDS011;30526;52.184;4.476;2022-10-17T07:14:40;14.00;;;6.90;;
44810;SDS011;30526;52.184;4.476;2022-10-17T07:17:06;13.25;;;7.30;;
44810;SDS011;30526;52.184;4.476;2022-10-17T07:19:32;11.55;;;7.32;;
44810;SDS011;30526;52.184;4.476;2022-10-17T07:21:58;13.02;;;7.32;;
44810;SDS011;30526;52.184;4.476;2022-10-17T07:24:24;13.57;;;8.23;;
44810;SDS011;30526;52.184;4.476;2022-10-17T07:26:50;11.45;;;6.97;;
44810;SDS011;30526;52.184;4.476;2022-10-17T07:29:16;13.30;;;7.18;;
44810;SDS011;30526;52.184;4.476;2022-10-17T07:31:42;11.60;;;7.47;;
44810;SDS011;30526;52.184;4.476;2022-10-17T07:34:09;15.30;;;7.30;;
44810;SDS011;30526;52.184;4.476;2022-10-17T07:36:35;13.40;;;7.53;;
44810;SDS011;30526;52.184;4.476;2022-10-17T07:39:01;13.32;;;7.38;;
44810;SDS011;30526;52.184;4.476;2022-10-17T07:41:27;11.05;;;7.25;;
44810;SDS011;30526;52.184;4.476;2022-10-17T07:43:53;13.43;;;7.30;;
44810;SDS011;30526;52.184;4.476;2022-10-17T07:46:20;9.63;;;5.13;;
44810;SDS011;30526;52.184;4.476;2022-10-17T07:48:46;19.50;;;7.72;;
44810;SDS011;30526;52.184;4.476;2022-10-17T07:51:12;13.30;;;7.75;;
44810;SDS011;30526;52.184;4.476;2022-10-17T07:53:38;11.50;;;7.38;;
44810;SDS011;30526;52.184;4.476;2022-10-17T07:56:07;15.38;;;7.78;;
44810;SDS011;30526;52.184;4.476;2022-10-17T07:58:34;15.02;;;7.70;;
44810;SDS011;30526;52.184;4.476;2022-10-17T08:01:01;13.80;;;8.40;;
44810;SDS011;30526;52.184;4.476;2022-10-17T08:03:27;25.80;;;8.88;;
44810;SDS011;30526;52.184;4.476;2022-10-17T08:05:55;16.35;;;8.93;;
44810;SDS011;30526;52.184;4.476;2022-10-17T08:08:21;13.25;;;7.88;;
44810;SDS011;30526;52.184;4.476;2022-10-17T08:10:47;13.38;;;8.00;;
44810;SDS011;30526;52.184;4.476;2022-10-17T08:13:13;21.73;;;9.65;;
44810;SDS011;30526;52.184;4.476;2022-10-17T08:15:39;16.15;;;8.85;;
44810;SDS011;30526;52.184;4.476;2022-10-17T08:18:05;22.65;;;9.40;;
44810;SDS011;30526;52.184;4.476;2022-10-17T08:20:31;15.48;;;8.55;;
44810;SDS011;30526;52.184;4.476;2022-10-17T08:22:57;24.95;;;9.35;;
44810;SDS011;30526;52.184;4.476;2022-10-17T08:25:24;14.05;;;8.30;;
44810;SDS011;30526;52.184;4.476;2022-10-17T08:27:50;14.88;;;9.30;;
44810;SDS011;30526;52.184;4.476;2022-10-17T08:30:16;24.65;;;9.05;;
44810;SDS011;30526;52.184;4.476;2022-10-17T08:32:42;16.48;;;8.38;;
44810;SDS011;30526;52.184;4.476;2022-10-17T08:35:08;15.68;;;7.75;;
44810;SDS011;30526;52.184;4.476;2022-10-17T08:37:34;14.17;;;7.33;;
44810;SDS011;30526;52.184;4.476;2022-10-17T08:40:00;19.48;;;8.30;;
44810;SDS011;30526;52.184;4.476;2022-10-17T08:47:48;17.25;;;8.38;;
44810;SDS011;30526;52.184;4.476;2022-10-17T08:50:21;16.13;;;5.85;;
44810;SDS011;30526;52.184;4.476;2022-10-17T08:52:53;16.88;;;7.72;;
44810;SDS011;30526;52.184;4.476;2022-10-17T08:57:49;15.02;;;7.53;;
44810;SDS011;30526;52.184;4.476;2022-10-17T09:00:19;14.85;;;7.57;;
44810;SDS011;30526;52.184;4.476;2022-10-17T09:03:04;13.68;;;7.20;;
44810;SDS011;30526;52.184;4.476;2022-10-17T09:10:51;13.27;;;6.93;;
44810;SDS011;30526;52.184;4.476;2022-10-17T09:13:24;14.52;;;6.65;;
44810;SDS011;30526;52.184;4.476;2022-10-17T09:18:38;15.57;;;6.25;;
44810;SDS011;30526;52.184;4.476;2022-10-17T09:21:25;13.63;;;6.10;;
44810;SDS011;30526;52.184;4.476;2022-10-17T09:23:58;15.02;;;7.07;;
44810;SDS011;30526;52.184;4.476;2022-10-17T09:26:25;9.80;;;6.57;;
44810;SDS011;30526;52.184;4.476;2022-10-17T09:28:52;10.88;;;6.55;;
44810;SDS011;30526;52.184;4.476;2022-10-17T09:31:23;11.68;;;6.15;;
44810;SDS011;30526;52.184;4.476;2022-10-17T09:33:51;11.65;;;7.13;;
44810;SDS011;30526;52.184;4.476;2022-10-17T09:36:20;10.10;;;6.50;;
44810;SDS011;30526;52.184;4.476;2022-10-17T09:38:48;14.85;;;6.88;;
44810;SDS011;30526;52.184;4.476;2022-10-17T09:41:19;10.75;;;6.70;;
44810;SDS011;30526;52.184;4.476;2022-10-17T09:43:45;9.27;;;6.35;;
44810;SDS011;30526;52.184;4.476;2022-10-17T09:46:16;10.82;;;6.22;;
44810;SDS011;30526;52.184;4.476;2022-10-17T09:48:44;8.32;;;6.30;;
44810;SDS011;30526;52.184;4.476;2022-10-17T09:51:11;10.07;;;5.95;;
44810;SDS011;30526;52.184;4.476;2022-10-17T09:53:39;8.40;;;4.75;;
44810;SDS011;30526;52.184;4.476;2022-10-17T09:56:17;12.60;;;5.53;;
44810;SDS011;30526;52.184;4.476;2022-10-17T10:01:14;9.38;;;4.30;;
44810;SDS011;30526;52.184;4.476;2022-10-17T10:03:40;5.63;;;3.72;;
44810;SDS011;30526;52.184;4.476;2022-10-17T10:06:14;8.18;;;3.45;;
44810;SDS011;30526;52.184;4.476;2022-10-17T10:08:53;11.33;;;3.07;;
44810;SDS011;30526;52.184;4.476;2022-10-17T10:11:23;4.45;;;3.10;;
44810;SDS011;30526;52.184;4.476;2022-10-17T10:13:50;6.38;;;2.72;;
44810;SDS011;30526;52.184;4.476;2022-10-17T10:16:20;5.20;;;3.20;;
44810;SDS011;30526;52.184;4.476;2022-10-17T10:18:47;8.95;;;2.60;;
44810;SDS011;30526;52.184;4.476;2022-10-17T10:21:14;7.90;;;2.90;;
44810;SDS011;30526;52.184;4.476;2022-10-17T10:23:44;7.80;;;2.45;;
44810;SDS011;30526;52.184;4.476;2022-10-17T10:28:37;3.88;;;2.10;;
44810;SDS011;30526;52.184;4.476;2022-10-17T10:31:05;2.85;;;1.88;;
44810;SDS011;30526;52.184;4.476;2022-10-17T10:33:32;3.42;;;1.90;;
44810;SDS011;30526;52.184;4.476;2022-10-17T10:36:00;4.40;;;1.85;;
44810;SDS011;30526;52.184;4.476;2022-10-17T10:38:27;11.18;;;1.95;;
44810;SDS011;30526;52.184;4.476;2022-10-17T10:40:54;6.63;;;1.77;;
44810;SDS011;30526;52.184;4.476;2022-10-17T10:45:47;8.45;;;1.80;;
44810;SDS011;30526;52.184;4.476;2022-10-17T10:48:21;3.78;;;1.75;;
44810;SDS011;30526;52.184;4.476;2022-10-17T10:50:48;3.42;;;1.90;;
44810;SDS011;30526;52.184;4.476;2022-10-17T10:55:45;2.45;;;1.42;;
44810;SDS011;30526;52.184;4.476;2022-10-17T11:00:58;9.82;;;2.10;;
44810;SDS011;30526;52.184;4.476;2022-10-17T11:03:30;4.50;;;2.33;;
44810;SDS011;30526;52.184;4.476;2022-10-17T11:05:59;3.05;;;2.58;;
44810;SDS011;30526;52.184;4.476;2022-10-17T11:08:33;5.95;;;2.00;;
44810;SDS011;30526;52.184;4.476;2022-10-17T11:11:19;6.78;;;2.60;;
44810;SDS011;30526;52.184;4.476;2022-10-17T11:18:49;5.93;;;3.05;;
44810;SDS011;30526;52.184;4.476;2022-10-17T11:21:18;5.45;;;2.38;;
44810;SDS011;30526;52.184;4.476;2022-10-17T11:23:46;4.47;;;2.58;;
44810;SDS011;30526;52.184;4.476;2022-10-17T11:26:15;4.43;;;2.30;;
44810;SDS011;30526;52.184;4.476;2022-10-17T11:31:15;4.78;;;2.47;;
44810;SDS011;30526;52.184;4.476;2022-10-17T11:33:49;6.80;;;2.67;;
44810;SDS011;30526;52.184;4.476;2022-10-17T11:36:16;7.40;;;2.55;;
44810;SDS011;30526;52.184;4.476;2022-10-17T11:38:54;3.70;;;2.15;;
44810;SDS011;30526;52.184;4.476;2022-10-17T11:41:23;4.30;;;3.00;;
44810;SDS011;30526;52.184;4.476;2022-10-17T11:43:58;5.93;;;2.65;;
44810;SDS011;30526;52.184;4.476;2022-10-17T11:46:26;5.70;;;2.75;;
44810;SDS011;30526;52.184;4.476;2022-10-17T11:52:05;2.92;;;2.10;;
44810;SDS011;30526;52.184;4.476;2022-10-17T11:54:36;6.15;;;2.38;;
44810;SDS011;30526;52.184;4.476;2022-10-17T12:02:24;3.50;;;1.88;;
44810;SDS011;30526;52.184;4.476;2022-10-17T12:07:21;5.53;;;1.90;;
44810;SDS011;30526;52.184;4.476;2022-10-17T12:12:23;4.35;;;2.50;;
44810;SDS011;30526;52.184;4.476;2022-10-17T12:14:49;8.02;;;1.65;;
44810;SDS011;30526;52.184;4.476;2022-10-17T12:17:24;2.25;;;1.42;;
44810;SDS011;30526;52.184;4.476;2022-10-17T12:24:54;4.32;;;1.73;;
44810;SDS011;30526;52.184;4.476;2022-10-17T12:27:31;4.93;;;1.45;;
44810;SDS011;30526;52.184;4.476;2022-10-17T12:29:58;3.10;;;1.55;;
44810;SDS011;30526;52.184;4.476;2022-10-17T12:32:25;4.10;;;1.75;;
44810;SDS011;30526;52.184;4.476;2022-10-17T12:34:54;3.60;;;1.60;;
44810;SDS011;30526;52.184;4.476;2022-10-17T12:40:52;5.60;;;1.80;;
44810;SDS011;30526;52.184;4.476;2022-10-17T12:42:52;5.15;;;1.40;;
44810;SDS011;30526;52.184;4.476;2022-10-17T12:48:02;4.50;;;1.70;;
44810;SDS011;30526;52.184;4.476;2022-10-17T12:53:13;3.80;;;2.15;;
44810;SDS011;30526;52.184;4.476;2022-10-17T12:55:41;7.10;;;1.90;;
44810;SDS011;30526;52.184;4.476;2022-10-17T12:58:11;3.10;;;1.60;;
44810;SDS011;30526;52.184;4.476;2022-10-17T13:00:42;2.83;;;1.67;;
44810;SDS011;30526;52.184;4.476;2022-10-17T13:03:23;5.53;;;1.77;;
44810;SDS011;30526;52.184;4.476;2022-10-17T13:05:54;5.93;;;1.88;;
44810;SDS011;30526;52.184;4.476;2022-10-17T13:08:55;4.72;;;2.13;;
44810;SDS011;30526;52.184;4.476;2022-10-17T13:11:13;5.25;;;1.77;;
44810;SDS011;30526;52.184;4.476;2022-10-17T13:16:08;8.65;;;2.10;;
44810;SDS011;30526;52.184;4.476;2022-10-17T13:18:51;6.55;;;1.88;;
44810;SDS011;30526;52.184;4.476;2022-10-17T13:21:17;2.97;;;1.60;;
44810;SDS011;30526;52.184;4.476;2022-10-17T13:23:44;4.75;;;1.70;;
44810;SDS011;30526;52.184;4.476;2022-10-17T13:28:39;4.03;;;1.52;;
44810;SDS011;30526;52.184;4.476;2022-10-17T13:31:06;6.95;;;1.63;;
44810;SDS011;30526;52.184;4.476;2022-10-17T13:33:34;3.42;;;1.67;;
44810;SDS011;30526;52.184;4.476;2022-10-17T13:36:02;5.30;;;1.90;;
44810;SDS011;30526;52.184;4.476;2022-10-17T13:38:30;4.35;;;2.22;;
44810;SDS011;30526;52.184;4.476;2022-10-17T13:40:56;4.97;;;1.70;;
44810;SDS011;30526;52.184;4.476;2022-10-17T13:43:22;3.65;;;1.58;;
44810;SDS011;30526;52.184;4.476;2022-10-17T13:45:50;6.05;;;1.40;;
44810;SDS011;30526;52.184;4.476;2022-10-17T13:48:17;9.70;;;1.85;;
44810;SDS011;30526;52.184;4.476;2022-10-17T13:50:46;4.75;;;1.88;;
44810;SDS011;30526;52.184;4.476;2022-10-17T13:58:23;5.28;;;1.67;;
44810;SDS011;30526;52.184;4.476;2022-10-17T14:00:49;6.60;;;1.75;;
44810;SDS011;30526;52.184;4.476;2022-10-17T14:03:17;4.00;;;1.67;;
44810;SDS011;30526;52.184;4.476;2022-10-17T14:08:28;5.80;;;2.03;;
44810;SDS011;30526;52.184;4.476;2022-10-17T14:10:55;3.00;;;1.55;;
44810;SDS011;30526;52.184;4.476;2022-10-17T14:13:25;5.05;;;1.90;;
44810;SDS011;30526;52.184;4.476;2022-10-17T14:15:52;9.50;;;2.08;;
44810;SDS011;30526;52.184;4.476;2022-10-17T14:18:20;7.32;;;1.80;;
44810;SDS011;30526;52.184;4.476;2022-10-17T14:20:48;8.18;;;2.40;;
44810;SDS011;30526;52.184;4.476;2022-10-17T14:23:28;3.83;;;2.03;;
44810;SDS011;30526;52.184;4.476;2022-10-17T14:28:30;7.10;;;2.17;;
44810;SDS011;30526;52.184;4.476;2022-10-17T14:31:08;7.15;;;1.98;;
44810;SDS011;30526;52.184;4.476;2022-10-17T14:33:34;6.05;;;1.92;;
44810;SDS011;30526;52.184;4.476;2022-10-17T14:36:00;6.27;;;1.77;;
44810;SDS011;30526;52.184;4.476;2022-10-17T14:38:27;4.43;;;2.25;;
44810;SDS011;30526;52.184;4.476;2022-10-17T14:40:58;6.78;;;2.60;;
44810;SDS011;30526;52.184;4.476;2022-10-17T14:43:25;5.40;;;2.20;;
44810;SDS011;30526;52.184;4.476;2022-10-17T14:45:55;7.20;;;2.58;;
44810;SDS011;30526;52.184;4.476;2022-10-17T14:48:21;6.25;;;2.30;;
44810;SDS011;30526;52.184;4.476;2022-10-17T14:53:32;9.07;;;2.88;;
44810;SDS011;30526;52.184;4.476;2022-10-17T14:56:00;6.18;;;1.90;;
44810;SDS011;30526;52.184;4.476;2022-10-17T14:58:27;5.20;;;1.80;;
44810;SDS011;30526;52.184;4.476;2022-10-17T15:00:54;6.05;;;1.95;;
44810;SDS011;30526;52.184;4.476;2022-10-17T15:03:20;11.48;;;2.60;;
44810;SDS011;30526;52.184;4.476;2022-10-17T15:05:46;4.72;;;1.98;;
44810;SDS011;30526;52.184;4.476;2022-10-17T15:08:13;5.77;;;2.00;;
44810;SDS011;30526;52.184;4.476;2022-10-17T15:10:39;4.68;;;1.70;;
44810;SDS011;30526;52.184;4.476;2022-10-17T15:13:06;6.32;;;1.70;;
44810;SDS011;30526;52.184;4.476;2022-10-17T15:15:32;4.40;;;1.50;;
44810;SDS011;30526;52.184;4.476;2022-10-17T15:17:58;7.05;;;1.95;;
44810;SDS011;30526;52.184;4.476;2022-10-17T15:20:25;6.38;;;1.75;;
44810;SDS011;30526;52.184;4.476;2022-10-17T15:22:52;7.13;;;1.98;;
44810;SDS011;30526;52.184;4.476;2022-10-17T15:25:19;5.15;;;1.65;;
44810;SDS011;30526;52.184;4.476;2022-10-17T15:27:45;2.53;;;1.47;;
44810;SDS011;30526;52.184;4.476;2022-10-17T15:30:19;8.00;;;2.13;;
44810;SDS011;30526;52.184;4.476;2022-10-17T15:32:45;6.25;;;2.05;;
44810;SDS011;30526;52.184;4.476;2022-10-17T15:35:12;5.03;;;2.08;;
44810;SDS011;30526;52.184;4.476;2022-10-17T15:37:37;5.07;;;2.28;;
44810;SDS011;30526;52.184;4.476;2022-10-17T15:40:04;6.28;;;2.13;;
44810;SDS011;30526;52.184;4.476;2022-10-17T15:42:30;7.45;;;2.28;;
44810;SDS011;30526;52.184;4.476;2022-10-17T15:44:56;9.65;;;2.80;;
44810;SDS011;30526;52.184;4.476;2022-10-17T15:47:24;8.55;;;2.40;;
44810;SDS011;30526;52.184;4.476;2022-10-17T15:49:51;6.30;;;2.55;;
44810;SDS011;30526;52.184;4.476;2022-10-17T15:52:17;11.60;;;3.22;;
44810;SDS011;30526;52.184;4.476;2022-10-17T15:54:43;7.45;;;2.38;;
44810;SDS011;30526;52.184;4.476;2022-10-17T15:57:15;6.93;;;2.75;;
44810;SDS011;30526;52.184;4.476;2022-10-17T15:59:41;8.40;;;2.35;;
44810;SDS011;30526;52.184;4.476;2022-10-17T16:02:11;8.15;;;2.38;;
44810;SDS011;30526;52.184;4.476;2022-10-17T16:04:38;11.70;;;3.05;;
44810;SDS011;30526;52.184;4.476;2022-10-17T16:07:04;12.18;;;2.90;;
44810;SDS011;30526;52.184;4.476;2022-10-17T16:09:31;9.80;;;2.80;;
44810;SDS011;30526;52.184;4.476;2022-10-17T16:11:57;9.98;;;2.92;;
44810;SDS011;30526;52.184;4.476;2022-10-17T16:14:24;8.20;;;2.17;;
44810;SDS011;30526;52.184;4.476;2022-10-17T16:16:50;8.43;;;2.70;;
44810;SDS011;30526;52.184;4.476;2022-10-17T16:19:16;6.65;;;2.78;;
44810;SDS011;30526;52.184;4.476;2022-10-17T16:21:42;9.15;;;3.10;;
44810;SDS011;30526;52.184;4.476;2022-10-17T16:24:09;13.30;;;2.88;;
44810;SDS011;30526;52.184;4.476;2022-10-17T16:26:36;8.25;;;2.65;;
44810;SDS011;30526;52.184;4.476;2022-10-17T16:29:02;13.73;;;3.25;;
44810;SDS011;30526;52.184;4.476;2022-10-17T16:31:35;15.90;;;4.30;;
44810;SDS011;30526;52.184;4.476;2022-10-17T16:34:02;9.70;;;3.15;;
44810;SDS011;30526;52.184;4.476;2022-10-17T16:36:28;9.02;;;2.38;;
44810;SDS011;30526;52.184;4.476;2022-10-17T16:38:54;12.43;;;3.22;;